sensor_id;sensor_type;location;lat;lon;timestamp;pressure;altitude;pressure_sealevel;temperature;humidity
18533;BME280;9396;51.510;11.934;2022-10-31T00:02:21;100906.03;;;13.35;100.00
18533;BME280;9396;51.510;11.934;2022-10-31T00:04:48;100909.91;;;13.15;100.00
18533;BME280;9396;51.510;11.934;2022-10-31T00:07:14;100908.78;;;13.17;100.00
18533;BME280;9396;51.510;11.934;2022-10-31T00:09:41;100868.00;;;12.89;100.00
18533;BME280;9396;51.510;11.934;2022-10-31T00:12:07;100918.78;;;13.15;100.00
18533;BME280;9396;51.510;11.934;2022-10-31T00:14:35;100913.28;;;13.17;100.00
18533;BME280;9396;51.510;11.934;2022-10-31T00:17:02;100914.41;;;13.14;100.00
18533;BME280;9396;51.510;11.934;2022-10-31T00:19:29;100921.59;;;12.96;100.00
18533;BME280;9396;51.510;11.934;2022-10-31T00:21:55;100923.13;;;12.99;100.00
18533;BME280;9396;51.510;11.934;2022-10-31T00:24:22;100922.81;;;13.02;100.00
18533;BME280;9396;51.510;11.934;2022-10-31T00:26:48;100919.63;;;12.98;100.00
18533;BME280;9396;51.510;11.934;2022-10-31T00:29:15;100921.16;;;13.01;100.00
18533;BME280;9396;51.510;11.934;2022-10-31T00:31:43;100923.47;;;12.96;100.00
18533;BME280;9396;51.510;11.934;2022-10-31T00:34:10;100925.50;;;12.58;100.00
18533;BME280;9396;51.510;11.934;2022-10-31T00:36:36;100928.94;;;12.51;100.00
18533;BME280;9396;51.510;11.934;2022-10-31T00:39:03;100933.03;;;12.45;100.00
18533;BME280;9396;51.510;11.934;2022-10-31T00:41:29;100937.22;;;12.48;100.00
18533;BME280;9396;51.510;11.934;2022-10-31T00:43:56;100932.94;;;12.55;100.00
18533;BME280;9396;51.510;11.934;2022-10-31T00:46:23;100935.69;;;12.63;100.00
18533;BME280;9396;51.510;11.934;2022-10-31T00:48:51;100939.59;;;12.68;100.00
18533;BME280;9396;51.510;11.934;2022-10-31T00:51:18;100940.88;;;12.64;100.00
18533;BME280;9396;51.510;11.934;2022-10-31T00:53:44;100943.22;;;12.67;100.00
18533;BME280;9396;51.510;11.934;2022-10-31T00:56:11;100941.19;;;12.61;100.00
18533;BME280;9396;51.510;11.934;2022-10-31T00:58:37;100947.91;;;12.65;100.00
18533;BME280;9396;51.510;11.934;2022-10-31T01:01:04;100944.09;;;12.68;100.00
18533;BME280;9396;51.510;11.934;2022-10-31T01:03:33;100945.53;;;12.62;100.00
18533;BME280;9396;51.510;11.934;2022-10-31T01:06:03;100951.63;;;12.55;100.00
18533;BME280;9396;51.510;11.934;2022-10-31T01:08:30;100947.63;;;12.51;100.00
18533;BME280;9396;51.510;11.934;2022-10-31T01:10:59;100949.59;;;12.49;100.00
18533;BME280;9396;51.510;11.934;2022-10-31T01:13:26;100949.06;;;12.45;100.00
18533;BME280;9396;51.510;11.934;2022-10-31T01:15:54;100956.97;;;12.55;100.00
18533;BME280;9396;51.510;11.934;2022-10-31T01:18:21;100945.47;;;12.54;100.00
18533;BME280;9396;51.510;11.934;2022-10-31T01:20:56;100958.88;;;12.62;100.00
18533;BME280;9396;51.510;11.934;2022-10-31T01:23:24;100952.03;;;12.60;100.00
18533;BME280;9396;51.510;11.934;2022-10-31T01:25:59;100962.47;;;12.53;100.00
18533;BME280;9396;51.510;11.934;2022-10-31T01:28:26;100963.47;;;12.52;100.00
18533;BME280;9396;51.510;11.934;2022-10-31T01:30:52;100957.06;;;12.45;100.00
18533;BME280;9396;51.510;11.934;2022-10-31T01:33:19;100958.03;;;12.44;100.00
18533;BME280;9396;51.510;11.934;2022-10-31T01:35:46;100959.56;;;12.29;100.00
18533;BME280;9396;51.510;11.934;2022-10-31T01:38:12;100960.94;;;12.33;100.00
18533;BME280;9396;51.510;11.934;2022-10-31T01:40:40;100955.63;;;12.33;100.00
18533;BME280;9396;51.510;11.934;2022-10-31T01:43:10;100955.13;;;12.20;100.00
18533;BME280;9396;51.510;11.934;2022-10-31T01:45:37;100957.22;;;12.26;100.00
18533;BME280;9396;51.510;11.934;2022-10-31T01:48:04;100955.81;;;12.22;100.00
18533;BME280;9396;51.510;11.934;2022-10-31T01:50:33;100965.25;;;12.17;100.00
18533;BME280;9396;51.510;11.934;2022-10-31T01:53:02;100954.94;;;12.04;100.00
18533;BME280;9396;51.510;11.934;2022-10-31T01:55:34;100955.66;;;12.06;100.00
18533;BME280;9396;51.510;11.934;2022-10-31T01:58:07;100964.53;;;11.97;100.00
18533;BME280;9396;51.510;11.934;2022-10-31T02:00:36;100960.81;;;12.08;100.00
18533;BME280;9396;51.510;11.934;2022-10-31T02:03:03;100967.44;;;12.04;100.00
18533;BME280;9396;51.510;11.934;2022-10-31T02:05:32;100955.88;;;12.13;100.00
18533;BME280;9396;51.510;11.934;2022-10-31T02:08:02;100961.03;;;11.97;100.00
18533;BME280;9396;51.510;11.934;2022-10-31T02:10:31;100951.09;;;11.89;100.00
18533;BME280;9396;51.510;11.934;2022-10-31T02:13:03;100948.94;;;11.75;100.00
18533;BME280;9396;51.510;11.934;2022-10-31T02:15:32;100961.47;;;11.92;100.00
18533;BME280;9396;51.510;11.934;2022-10-31T02:17:59;100965.22;;;11.99;100.00
18533;BME280;9396;51.510;11.934;2022-10-31T02:20:32;100970.78;;;12.06;100.00
18533;BME280;9396;51.510;11.934;2022-10-31T02:23:18;100964.69;;;11.96;100.00
18533;BME280;9396;51.510;11.934;2022-10-31T02:28:57;100972.38;;;11.99;100.00
18533;BME280;9396;51.510;11.934;2022-10-31T02:31:34;100976.28;;;12.04;100.00
18533;BME280;9396;51.510;11.934;2022-10-31T02:34:11;100977.56;;;12.00;100.00
18533;BME280;9396;51.510;11.934;2022-10-31T02:36:43;100979.16;;;11.93;100.00
18533;BME280;9396;51.510;11.934;2022-10-31T02:39:18;100982.59;;;11.76;100.00
18533;BME280;9396;51.510;11.934;2022-10-31T02:41:52;100982.31;;;11.79;100.00
18533;BME280;9396;51.510;11.934;2022-10-31T02:44:28;100981.03;;;11.83;100.00
18533;BME280;9396;51.510;11.934;2022-10-31T02:47:00;100974.13;;;11.90;100.00
18533;BME280;9396;51.510;11.934;2022-10-31T02:49:32;100977.75;;;11.89;100.00
18533;BME280;9396;51.510;11.934;2022-10-31T02:52:01;100982.97;;;11.91;100.00
18533;BME280;9396;51.510;11.934;2022-10-31T02:54:28;100979.06;;;11.85;100.00
18533;BME280;9396;51.510;11.934;2022-10-31T02:56:59;100983.53;;;11.84;100.00
18533;BME280;9396;51.510;11.934;2022-10-31T02:59:29;100988.72;;;11.86;100.00
18533;BME280;9396;51.510;11.934;2022-10-31T03:02:09;100980.88;;;11.84;100.00
18533;BME280;9396;51.510;11.934;2022-10-31T03:07:49;100929.72;;;11.35;100.00
18533;BME280;9396;51.510;11.934;2022-10-31T03:10:23;100987.38;;;11.63;100.00
18533;BME280;9396;51.510;11.934;2022-10-31T03:12:59;100984.56;;;11.74;100.00
18533;BME280;9396;51.510;11.934;2022-10-31T03:15:31;100986.00;;;11.68;100.00
18533;BME280;9396;51.510;11.934;2022-10-31T03:18:02;100994.44;;;11.54;100.00
18533;BME280;9396;51.510;11.934;2022-10-31T03:20:36;101001.16;;;11.58;100.00
18533;BME280;9396;51.510;11.934;2022-10-31T03:23:06;101000.44;;;11.66;100.00
18533;BME280;9396;51.510;11.934;2022-10-31T03:25:36;101009.97;;;11.68;100.00
18533;BME280;9396;51.510;11.934;2022-10-31T03:28:05;101009.13;;;11.68;100.00
18533;BME280;9396;51.510;11.934;2022-10-31T03:30:35;101003.81;;;11.68;100.00
18533;BME280;9396;51.510;11.934;2022-10-31T03:33:09;101002.13;;;11.57;100.00
18533;BME280;9396;51.510;11.934;2022-10-31T03:35:39;101015.19;;;11.60;100.00
18533;BME280;9396;51.510;11.934;2022-10-31T03:38:07;101001.28;;;11.66;100.00
18533;BME280;9396;51.510;11.934;2022-10-31T03:40:36;101010.97;;;11.67;100.00
18533;BME280;9396;51.510;11.934;2022-10-31T03:43:10;101011.38;;;11.72;100.00
18533;BME280;9396;51.510;11.934;2022-10-31T03:45:41;101014.31;;;11.69;100.00
18533;BME280;9396;51.510;11.934;2022-10-31T03:48:12;101012.81;;;11.67;100.00
18533;BME280;9396;51.510;11.934;2022-10-31T03:50:44;101021.06;;;11.64;100.00
18533;BME280;9396;51.510;11.934;2022-10-31T03:53:15;101021.34;;;11.61;100.00
18533;BME280;9396;51.510;11.934;2022-10-31T03:55:50;101020.22;;;11.54;100.00
18533;BME280;9396;51.510;11.934;2022-10-31T03:58:20;101024.47;;;11.47;100.00
18533;BME280;9396;51.510;11.934;2022-10-31T04:00:50;101024.75;;;11.44;100.00
18533;BME280;9396;51.510;11.934;2022-10-31T04:03:22;101029.78;;;11.47;100.00
18533;BME280;9396;51.510;11.934;2022-10-31T04:05:53;101026.44;;;11.45;100.00
18533;BME280;9396;51.510;11.934;2022-10-31T04:08:24;101033.16;;;11.39;100.00
18533;BME280;9396;51.510;11.934;2022-10-31T04:10:53;101034.59;;;11.34;100.00
18533;BME280;9396;51.510;11.934;2022-10-31T04:13:24;101027.88;;;11.30;100.00
18533;BME280;9396;51.510;11.934;2022-10-31T04:15:53;101033.19;;;11.30;100.00
18533;BME280;9396;51.510;11.934;2022-10-31T04:18:23;101034.31;;;11.37;100.00
18533;BME280;9396;51.510;11.934;2022-10-31T04:20:59;101031.50;;;11.38;100.00
18533;BME280;9396;51.510;11.934;2022-10-31T04:23:26;101024.06;;;11.32;100.00
18533;BME280;9396;51.510;11.934;2022-10-31T04:25:53;101034.59;;;11.24;100.00
18533;BME280;9396;51.510;11.934;2022-10-31T04:28:20;101044.72;;;11.21;100.00
18533;BME280;9396;51.510;11.934;2022-10-31T04:30:47;101049.19;;;11.20;100.00
18533;BME280;9396;51.510;11.934;2022-10-31T04:33:13;101043.84;;;11.20;100.00
18533;BME280;9396;51.510;11.934;2022-10-31T04:35:41;101046.66;;;11.19;100.00
18533;BME280;9396;51.510;11.934;2022-10-31T04:38:08;101053.81;;;11.18;100.00
18533;BME280;9396;51.510;11.934;2022-10-31T04:40:34;101053.94;;;11.17;100.00
18533;BME280;9396;51.510;11.934;2022-10-31T04:43:01;101054.38;;;11.03;100.00
18533;BME280;9396;51.510;11.934;2022-10-31T04:45:28;101052.84;;;11.10;100.00
18533;BME280;9396;51.510;11.934;2022-10-31T04:47:54;101053.13;;;10.97;100.00
18533;BME280;9396;51.510;11.934;2022-10-31T04:50:21;101053.56;;;10.93;100.00
18533;BME280;9396;51.510;11.934;2022-10-31T04:52:49;101054.66;;;10.80;100.00
18533;BME280;9396;51.510;11.934;2022-10-31T04:55:15;101052.84;;;10.71;100.00
18533;BME280;9396;51.510;11.934;2022-10-31T04:57:42;101063.34;;;10.82;100.00
18533;BME280;9396;51.510;11.934;2022-10-31T05:00:10;101059.28;;;10.88;100.00
18533;BME280;9396;51.510;11.934;2022-10-31T05:02:43;101060.41;;;10.86;100.00
18533;BME280;9396;51.510;11.934;2022-10-31T05:05:09;101058.00;;;10.82;100.00
18533;BME280;9396;51.510;11.934;2022-10-31T05:07:38;101060.41;;;10.76;100.00
18533;BME280;9396;51.510;11.934;2022-10-31T05:10:08;101056.47;;;10.90;100.00
18533;BME280;9396;51.510;11.934;2022-10-31T05:12:36;100989.66;;;10.54;100.00
18533;BME280;9396;51.510;11.934;2022-10-31T05:15:03;101050.31;;;10.99;100.00
18533;BME280;9396;51.510;11.934;2022-10-31T05:17:30;101050.72;;;11.04;100.00
18533;BME280;9396;51.510;11.934;2022-10-31T05:19:57;101047.41;;;11.02;100.00
18533;BME280;9396;51.510;11.934;2022-10-31T05:22:23;101047.81;;;11.07;100.00
18533;BME280;9396;51.510;11.934;2022-10-31T05:24:50;101053.13;;;11.07;100.00
18533;BME280;9396;51.510;11.934;2022-10-31T05:27:18;101055.94;;;11.05;100.00
18533;BME280;9396;51.510;11.934;2022-10-31T05:29:44;101046.25;;;11.04;100.00
18533;BME280;9396;51.510;11.934;2022-10-31T05:32:11;101042.47;;;10.88;100.00
18533;BME280;9396;51.510;11.934;2022-10-31T05:34:38;101043.31;;;10.88;100.00
18533;BME280;9396;51.510;11.934;2022-10-31T05:37:04;101038.41;;;10.93;100.00
18533;BME280;9396;51.510;11.934;2022-10-31T05:39:31;101034.78;;;10.94;100.00
18533;BME280;9396;51.510;11.934;2022-10-31T05:41:57;101042.47;;;10.97;100.00
18533;BME280;9396;51.510;11.934;2022-10-31T05:44:25;101044.59;;;11.03;100.00
18533;BME280;9396;51.510;11.934;2022-10-31T05:46:52;101044.59;;;11.03;100.00
18533;BME280;9396;51.510;11.934;2022-10-31T05:49:19;101043.03;;;11.01;100.00
18533;BME280;9396;51.510;11.934;2022-10-31T05:51:45;101050.59;;;10.96;100.00
18533;BME280;9396;51.510;11.934;2022-10-31T05:54:12;101042.47;;;10.97;100.00
18533;BME280;9396;51.510;11.934;2022-10-31T05:56:38;101045.81;;;10.90;100.00
18533;BME280;9396;51.510;11.934;2022-10-31T05:59:05;101051.44;;;10.87;100.00
18533;BME280;9396;51.510;11.934;2022-10-31T06:01:33;101052.28;;;10.87;100.00
18533;BME280;9396;51.510;11.934;2022-10-31T06:04:00;101056.47;;;10.90;100.00
18533;BME280;9396;51.510;11.934;2022-10-31T06:06:26;101056.63;;;10.78;100.00
18533;BME280;9396;51.510;11.934;2022-10-31T06:08:53;101059.84;;;10.72;100.00
18533;BME280;9396;51.510;11.934;2022-10-31T06:11:20;101064.44;;;10.70;100.00
18533;BME280;9396;51.510;11.934;2022-10-31T06:13:46;101073.56;;;10.77;100.00
18533;BME280;9396;51.510;11.934;2022-10-31T06:16:13;101076.94;;;10.79;100.00
18533;BME280;9396;51.510;11.934;2022-10-31T06:18:41;101074.69;;;10.75;100.00
18533;BME280;9396;51.510;11.934;2022-10-31T06:21:07;101070.19;;;10.75;100.00
18533;BME280;9396;51.510;11.934;2022-10-31T06:23:34;101077.19;;;10.67;100.00
18533;BME280;9396;51.510;11.934;2022-10-31T06:26:00;101076.75;;;10.52;100.00
18533;BME280;9396;51.510;11.934;2022-10-31T06:28:27;101081.63;;;10.47;100.00
18533;BME280;9396;51.510;11.934;2022-10-31T06:30:54;101082.44;;;10.38;100.00
18533;BME280;9396;51.510;11.934;2022-10-31T06:33:20;101091.56;;;10.36;100.00
18533;BME280;9396;51.510;11.934;2022-10-31T06:35:48;101088.50;;;10.59;100.00
18533;BME280;9396;51.510;11.934;2022-10-31T06:38:15;101091.19;;;10.69;100.00
18533;BME280;9396;51.510;11.934;2022-10-31T06:40:41;101093.59;;;10.82;100.00
18533;BME280;9396;51.510;11.934;2022-10-31T06:43:08;101101.31;;;10.85;100.00
18533;BME280;9396;51.510;11.934;2022-10-31T06:45:36;101100.19;;;10.87;100.00
18533;BME280;9396;51.510;11.934;2022-10-31T06:48:03;101110.00;;;10.87;100.00
18533;BME280;9396;51.510;11.934;2022-10-31T06:50:30;101104.81;;;10.85;100.00
18533;BME280;9396;51.510;11.934;2022-10-31T06:52:58;101109.44;;;10.83;100.00
18533;BME280;9396;51.510;11.934;2022-10-31T06:55:26;101115.16;;;10.69;100.00
18533;BME280;9396;51.510;11.934;2022-10-31T06:57:53;101111.09;;;10.84;100.00
18533;BME280;9396;51.510;11.934;2022-10-31T07:00:20;101118.41;;;10.92;100.00
18533;BME280;9396;51.510;11.934;2022-10-31T07:02:54;101111.41;;;11.00;100.00
18533;BME280;9396;51.510;11.934;2022-10-31T07:05:21;101121.66;;;11.05;100.00
18533;BME280;9396;51.510;11.934;2022-10-31T07:07:51;101111.13;;;11.03;100.00
18533;BME280;9396;51.510;11.934;2022-10-31T07:10:19;101120.09;;;11.12;100.00
18533;BME280;9396;51.510;11.934;2022-10-31T07:12:46;101122.63;;;11.23;100.00
18533;BME280;9396;51.510;11.934;2022-10-31T07:15:13;101126.56;;;11.28;100.00
18533;BME280;9396;51.510;11.934;2022-10-31T07:17:39;101134.13;;;11.14;100.00
18533;BME280;9396;51.510;11.934;2022-10-31T07:20:07;101137.22;;;11.28;100.00
18533;BME280;9396;51.510;11.934;2022-10-31T07:22:34;101136.06;;;11.31;100.00
18533;BME280;9396;51.510;11.934;2022-10-31T07:25:02;101137.50;;;11.35;100.00
18533;BME280;9396;51.510;11.934;2022-10-31T07:27:35;101133.28;;;11.23;100.00
18533;BME280;9396;51.510;11.934;2022-10-31T07:30:02;101133.16;;;11.34;100.00
18533;BME280;9396;51.510;11.934;2022-10-31T07:32:37;101135.38;;;11.48;100.00
18533;BME280;9396;51.510;11.934;2022-10-31T07:35:04;101135.34;;;11.57;100.00
18533;BME280;9396;51.510;11.934;2022-10-31T07:37:30;101145.31;;;11.55;100.00
18533;BME280;9396;51.510;11.934;2022-10-31T07:39:57;101137.75;;;11.70;100.00
18533;BME280;9396;51.510;11.934;2022-10-31T07:42:24;101142.69;;;11.65;100.00
18533;BME280;9396;51.510;11.934;2022-10-31T07:44:52;101140.97;;;11.83;100.00
18533;BME280;9396;51.510;11.934;2022-10-31T07:47:18;101135.88;;;11.99;100.00
18533;BME280;9396;51.510;11.934;2022-10-31T07:49:45;101143.72;;;12.10;100.00
18533;BME280;9396;51.510;11.934;2022-10-31T07:52:11;101145.78;;;12.16;100.00
18533;BME280;9396;51.510;11.934;2022-10-31T07:54:38;101142.25;;;12.25;100.00
18533;BME280;9396;51.510;11.934;2022-10-31T07:57:05;101138.31;;;12.29;100.00
18533;BME280;9396;51.510;11.934;2022-10-31T07:59:31;101141.81;;;12.30;100.00
18533;BME280;9396;51.510;11.934;2022-10-31T08:01:59;101139.16;;;12.30;100.00
18533;BME280;9396;51.510;11.934;2022-10-31T08:04:26;101145.78;;;12.16;100.00
18533;BME280;9396;51.510;11.934;2022-10-31T08:06:52;101146.06;;;12.23;100.00
18533;BME280;9396;51.510;11.934;2022-10-31T08:09:19;101143.63;;;12.29;100.00
18533;BME280;9396;51.510;11.934;2022-10-31T08:11:45;101140.09;;;12.65;100.00
18533;BME280;9396;51.510;11.934;2022-10-31T08:14:12;101138.19;;;12.21;100.00
18533;BME280;9396;51.510;11.934;2022-10-31T08:16:39;101147.19;;;12.20;100.00
18533;BME280;9396;51.510;11.934;2022-10-31T08:19:06;101144.16;;;12.42;100.00
18533;BME280;9396;51.510;11.934;2022-10-31T08:21:33;101143.53;;;12.75;100.00
18533;BME280;9396;51.510;11.934;2022-10-31T08:24:00;101137.31;;;12.57;100.00
18533;BME280;9396;51.510;11.934;2022-10-31T08:26:26;101145.16;;;12.86;100.00
18533;BME280;9396;51.510;11.934;2022-10-31T08:28:53;101143.72;;;12.91;100.00
18533;BME280;9396;51.510;11.934;2022-10-31T08:31:20;101142.22;;;13.07;100.00
18533;BME280;9396;51.510;11.934;2022-10-31T08:33:46;101148.25;;;13.09;100.00
18533;BME280;9396;51.510;11.934;2022-10-31T08:36:14;101141.94;;;13.10;100.00
18533;BME280;9396;51.510;11.934;2022-10-31T08:38:41;101144.16;;;13.14;100.00
18533;BME280;9396;51.510;11.934;2022-10-31T08:41:07;101147.50;;;13.16;100.00
18533;BME280;9396;51.510;11.934;2022-10-31T08:43:34;101135.69;;;13.19;100.00
18533;BME280;9396;51.510;11.934;2022-10-31T08:46:00;101150.41;;;13.23;100.00
18533;BME280;9396;51.510;11.934;2022-10-31T08:48:28;101141.69;;;13.03;100.00
18533;BME280;9396;51.510;11.934;2022-10-31T08:50:56;101136.94;;;12.97;100.00
18533;BME280;9396;51.510;11.934;2022-10-31T08:53:25;101132.63;;;13.14;100.00
18533;BME280;9396;51.510;11.934;2022-10-31T08:55:54;101122.09;;;13.30;100.00
18533;BME280;9396;51.510;11.934;2022-10-31T08:58:22;101126.28;;;13.50;100.00
18533;BME280;9396;51.510;11.934;2022-10-31T09:00:50;101123.84;;;13.82;100.00
18533;BME280;9396;51.510;11.934;2022-10-31T09:03:18;101121.75;;;13.93;100.00
18533;BME280;9396;51.510;11.934;2022-10-31T09:05:45;101119.44;;;13.98;100.00
18533;BME280;9396;51.510;11.934;2022-10-31T09:08:12;101109.94;;;14.04;100.00
18533;BME280;9396;51.510;11.934;2022-10-31T09:10:41;101107.47;;;14.11;100.00
18533;BME280;9396;51.510;11.934;2022-10-31T09:13:11;101113.00;;;14.17;100.00
18533;BME280;9396;51.510;11.934;2022-10-31T09:15:39;101099.69;;;14.25;100.00
18533;BME280;9396;51.510;11.934;2022-10-31T09:18:07;101108.78;;;14.32;100.00
18533;BME280;9396;51.510;11.934;2022-10-31T09:20:35;101108.13;;;14.38;100.00
18533;BME280;9396;51.510;11.934;2022-10-31T09:23:04;101104.47;;;14.39;100.00
18533;BME280;9396;51.510;11.934;2022-10-31T09:25:32;101106.50;;;14.45;100.00
18533;BME280;9396;51.510;11.934;2022-10-31T09:28:01;101101.63;;;14.41;100.00
18533;BME280;9396;51.510;11.934;2022-10-31T09:30:30;101113.47;;;14.30;100.00
18533;BME280;9396;51.510;11.934;2022-10-31T09:32:59;101103.09;;;14.27;100.00
18533;BME280;9396;51.510;11.934;2022-10-31T09:35:27;101104.53;;;14.22;100.00
18533;BME280;9396;51.510;11.934;2022-10-31T09:37:54;101100.75;;;14.32;100.00
18533;BME280;9396;51.510;11.934;2022-10-31T09:40:21;101097.47;;;14.46;100.00
18533;BME280;9396;51.510;11.934;2022-10-31T09:42:55;101100.50;;;14.51;100.00
18533;BME280;9396;51.510;11.934;2022-10-31T09:45:32;101099.34;;;14.62;100.00
18533;BME280;9396;51.510;11.934;2022-10-31T09:48:13;101099.91;;;14.73;100.00
18533;BME280;9396;51.510;11.934;2022-10-31T09:50:46;101093.69;;;14.73;100.00
18533;BME280;9396;51.510;11.934;2022-10-31T09:53:23;101096.72;;;14.78;100.00
18533;BME280;9396;51.510;11.934;2022-10-31T09:55:52;101094.38;;;14.83;100.00
18533;BME280;9396;51.510;11.934;2022-10-31T09:58:23;101099.09;;;14.89;100.00
18533;BME280;9396;51.510;11.934;2022-10-31T10:00:53;101097.59;;;14.94;100.00
18533;BME280;9396;51.510;11.934;2022-10-31T10:03:29;101060.56;;;14.82;100.00
18533;BME280;9396;51.510;11.934;2022-10-31T10:06:04;101099.47;;;15.10;100.00
18533;BME280;9396;51.510;11.934;2022-10-31T10:08:34;101041.66;;;14.83;100.00
18533;BME280;9396;51.510;11.934;2022-10-31T10:11:11;101090.78;;;15.16;100.00
18533;BME280;9396;51.510;11.934;2022-10-31T10:13:55;101092.09;;;15.12;100.00
18533;BME280;9396;51.510;11.934;2022-10-31T10:16:38;101095.47;;;15.14;100.00
18533;BME280;9396;51.510;11.934;2022-10-31T10:19:19;101087.06;;;15.17;100.00
18533;BME280;9396;51.510;11.934;2022-10-31T10:21:55;101087.91;;;15.18;100.00
18533;BME280;9396;51.510;11.934;2022-10-31T10:24:34;101077.84;;;15.28;100.00
18533;BME280;9396;51.510;11.934;2022-10-31T10:27:12;101088.09;;;15.32;100.00
18533;BME280;9396;51.510;11.934;2022-10-31T10:29:44;101084.72;;;15.38;100.00
18533;BME280;9396;51.510;11.934;2022-10-31T10:32:19;101083.56;;;15.33;100.00
18533;BME280;9396;51.510;11.934;2022-10-31T10:34:51;101077.19;;;15.34;100.00
18533;BME280;9396;51.510;11.934;2022-10-31T10:37:23;101080.88;;;15.33;100.00
18533;BME280;9396;51.510;11.934;2022-10-31T10:39:55;101072.53;;;15.44;100.00
18533;BME280;9396;51.510;11.934;2022-10-31T10:42:25;101071.84;;;15.42;100.00
18533;BME280;9396;51.510;11.934;2022-10-31T10:45:14;101063.66;;;15.43;100.00
18533;BME280;9396;51.510;11.934;2022-10-31T10:48:07;101078.22;;;15.57;100.00
18533;BME280;9396;51.510;11.934;2022-10-31T10:50:41;101065.13;;;15.62;100.00
18533;BME280;9396;51.510;11.934;2022-10-31T10:53:20;101066.31;;;15.67;100.00
18533;BME280;9396;51.510;11.934;2022-10-31T10:56:00;101062.47;;;15.70;100.00
18533;BME280;9396;51.510;11.934;2022-10-31T10:58:28;101057.91;;;15.70;100.00
18533;BME280;9396;51.510;11.934;2022-10-31T11:00:55;101060.28;;;15.73;100.00
18533;BME280;9396;51.510;11.934;2022-10-31T11:03:23;101061.91;;;15.82;100.00
18533;BME280;9396;51.510;11.934;2022-10-31T11:05:51;101056.72;;;15.89;100.00
18533;BME280;9396;51.510;11.934;2022-10-31T11:08:26;101045.97;;;15.89;100.00
18533;BME280;9396;51.510;11.934;2022-10-31T11:11:01;101045.97;;;15.89;100.00
18533;BME280;9396;51.510;11.934;2022-10-31T11:13:29;101041.44;;;15.89;100.00
18533;BME280;9396;51.510;11.934;2022-10-31T11:15:59;101034.03;;;15.91;100.00
18533;BME280;9396;51.510;11.934;2022-10-31T11:18:30;101039.22;;;16.01;100.00
18533;BME280;9396;51.510;11.934;2022-10-31T11:21:00;100997.56;;;15.74;100.00
18533;BME280;9396;51.510;11.934;2022-10-31T11:23:28;101034.16;;;16.06;100.00
18533;BME280;9396;51.510;11.934;2022-10-31T11:25:57;101031.16;;;16.09;100.00
18533;BME280;9396;51.510;11.934;2022-10-31T11:28:25;101030.78;;;16.12;100.00
18533;BME280;9396;51.510;11.934;2022-10-31T11:30:56;101028.78;;;16.14;100.00
18533;BME280;9396;51.510;11.934;2022-10-31T11:33:29;101024.22;;;16.15;100.00
18533;BME280;9396;51.510;11.934;2022-10-31T11:35:58;101024.56;;;16.20;100.00
18533;BME280;9396;51.510;11.934;2022-10-31T11:38:32;101019.50;;;16.25;100.00
18533;BME280;9396;51.510;11.934;2022-10-31T11:41:07;101018.84;;;16.23;100.00
18533;BME280;9396;51.510;11.934;2022-10-31T11:43:35;101019.97;;;16.28;100.00
18533;BME280;9396;51.510;11.934;2022-10-31T11:46:08;101018.47;;;16.26;100.00
18533;BME280;9396;51.510;11.934;2022-10-31T11:48:37;101014.44;;;16.30;100.00
18533;BME280;9396;51.510;11.934;2022-10-31T11:51:04;101012.53;;;16.38;100.00
18533;BME280;9396;51.510;11.934;2022-10-31T11:53:33;101016.56;;;16.42;100.00
18533;BME280;9396;51.510;11.934;2022-10-31T11:56:06;101018.09;;;16.37;100.00
18533;BME280;9396;51.510;11.934;2022-10-31T11:58:36;101008.69;;;16.41;100.00
18533;BME280;9396;51.510;11.934;2022-10-31T12:01:03;101008.13;;;16.45;100.00
18533;BME280;9396;51.510;11.934;2022-10-31T12:03:41;101009.50;;;16.49;100.00
18533;BME280;9396;51.510;11.934;2022-10-31T12:06:13;101006.81;;;16.49;100.00
18533;BME280;9396;51.510;11.934;2022-10-31T12:08:43;101003.06;;;16.58;100.00
18533;BME280;9396;51.510;11.934;2022-10-31T12:11:20;101004.41;;;16.54;100.00
18533;BME280;9396;51.510;11.934;2022-10-31T12:13:59;100997.13;;;16.63;100.00
18533;BME280;9396;51.510;11.934;2022-10-31T12:16:35;100985.88;;;16.67;100.00
18533;BME280;9396;51.510;11.934;2022-10-31T12:19:05;100992.56;;;16.71;100.00
18533;BME280;9396;51.510;11.934;2022-10-31T12:21:47;100989.50;;;16.74;100.00
18533;BME280;9396;51.510;11.934;2022-10-31T12:24:39;100989.16;;;16.77;100.00
18533;BME280;9396;51.510;11.934;2022-10-31T12:27:19;100986.09;;;16.80;100.00
18533;BME280;9396;51.510;11.934;2022-10-31T12:30:12;100985.84;;;16.90;100.00
18533;BME280;9396;51.510;11.934;2022-10-31T12:32:53;100978.16;;;16.87;100.00
18533;BME280;9396;51.510;11.934;2022-10-31T12:35:33;100979.06;;;16.79;100.00
18533;BME280;9396;51.510;11.934;2022-10-31T12:38:20;100962.56;;;16.82;100.00
18533;BME280;9396;51.510;11.934;2022-10-31T12:41:07;100967.22;;;16.88;100.00
18533;BME280;9396;51.510;11.934;2022-10-31T12:43:43;100961.47;;;16.91;100.00
18533;BME280;9396;51.510;11.934;2022-10-31T12:46:16;100956.09;;;16.91;100.00
18533;BME280;9396;51.510;11.934;2022-10-31T12:49:12;100956.94;;;16.92;100.00
18533;BME280;9396;51.510;11.934;2022-10-31T12:51:52;100951.03;;;16.96;100.00
18533;BME280;9396;51.510;11.934;2022-10-31T12:54:45;100945.50;;;16.98;100.00
18533;BME280;9396;51.510;11.934;2022-10-31T12:57:23;100953.91;;;16.95;100.00
18533;BME280;9396;51.510;11.934;2022-10-31T12:59:52;100946.91;;;16.86;100.00
18533;BME280;9396;51.510;11.934;2022-10-31T13:02:22;100945.06;;;16.86;100.00